Anacostia, District of Columbia
Current Conditions -  °F | °C
As of 9:52 PM on Saturday 20 Dec 2014 (Local Time) from KDCA Reporting Station
Broken Clouds Broken Clouds  
Wind Chill: 33°   Ceiling: 11000
Heat Index: 37°   Visibility: 10mi
Dew Point: 21°   Wind: 5mph
Humidity: 52%   Direction: 330°NNW
Pressure: 30.31"   Gusts: NA
Location:  38.8618°N, 77.0026°W
Report Text: KDCA 210252Z 33004KT 10SM BKN110 03/M06 A3031 RMK AO2 SLP264 T00281061 53001
Loading
Personal Weather Stations






























Interactive Weather Map New forecast layout! Learn more

10-Day Weather Forecast

Advertisements
Track Severe Weather on mobile